COOK73 ZUUU-RJOC
Flight info
| Callsign | COOK73 |
|---|---|
| Flight time | N/A |
| Altitude | 35000 |
| Route | UBRAB9W UBRAB B213 ESPEG V154 SNF W269 OLPOV B213 WHA R343 PK A593 AKARA/K0830F350 A593 LAMEN/N0449F350 A593 SADLI Y590 BEDAR Y591 FUE V28 MARCO Y45 KYOKA |
| Aircraft | C25C/M-SDE2E3FGHRWXY/LB1 |
Departure
| Time | 2026-05-04 02:11 |
|---|---|
| Airport | Chengdu Shuangliu International Airport (ZUUU) |
Arrival
| Time | N/A |
|---|---|
| Airport | Izumo Enmusubi Airport (RJOC) |
| Time | Latitude | Longitude | Altitude | Speed | Heading |
|---|---|---|---|---|---|
| 2026-05-04 01:28 | 30.57989 | 103.95459 | 1641 ft | 0 kts | 200° |
| 2026-05-04 01:49 | 30.58012 | 103.95469 | 1641 ft | 6 kts | 200° |
| 2026-05-04 01:50 | 30.58034 | 103.95489 | 1641 ft | 1 kts | 282° |
| 2026-05-04 01:52 | 30.58034 | 103.95488 | 1641 ft | 1 kts | 283° |
| 2026-05-04 01:53 | 30.58053 | 103.95460 | 1641 ft | 8 kts | 330° |
| 2026-05-04 01:53 | 30.58094 | 103.95418 | 1641 ft | 8 kts | 295° |
| 2026-05-04 01:53 | 30.58116 | 103.95363 | 1641 ft | 7 kts | 294° |
| 2026-05-04 01:53 | 30.58133 | 103.95312 | 1641 ft | 6 kts | 291° |
| 2026-05-04 01:54 | 30.58149 | 103.95265 | 1641 ft | 6 kts | 292° |
| 2026-05-04 01:54 | 30.58163 | 103.95223 | 1641 ft | 6 kts | 290° |
| 2026-05-04 01:54 | 30.58173 | 103.95180 | 1641 ft | 5 kts | 267° |
| 2026-05-04 01:54 | 30.58154 | 103.95146 | 1641 ft | 5 kts | 214° |
| 2026-05-04 01:55 | 30.58120 | 103.95127 | 1641 ft | 6 kts | 201° |
| 2026-05-04 01:55 | 30.58079 | 103.95109 | 1641 ft | 8 kts | 200° |
| 2026-05-04 01:55 | 30.58018 | 103.95083 | 1641 ft | 11 kts | 201° |
| 2026-05-04 01:55 | 30.57941 | 103.95047 | 1641 ft | 12 kts | 203° |
| 2026-05-04 01:56 | 30.57864 | 103.95011 | 1641 ft | 12 kts | 200° |
| 2026-05-04 01:56 | 30.57789 | 103.94976 | 1641 ft | 12 kts | 201° |
| 2026-05-04 01:56 | 30.57715 | 103.94942 | 1641 ft | 12 kts | 202° |
| 2026-05-04 01:56 | 30.57641 | 103.94907 | 1641 ft | 11 kts | 202° |
| 2026-05-04 01:57 | 30.57567 | 103.94873 | 1641 ft | 11 kts | 202° |
| 2026-05-04 01:57 | 30.57497 | 103.94838 | 1641 ft | 11 kts | 202° |
| 2026-05-04 01:57 | 30.57429 | 103.94807 | 1641 ft | 10 kts | 201° |
| 2026-05-04 01:57 | 30.57363 | 103.94777 | 1641 ft | 10 kts | 201° |
| 2026-05-04 01:58 | 30.57301 | 103.94749 | 1641 ft | 9 kts | 201° |
| 2026-05-04 01:58 | 30.57242 | 103.94722 | 1641 ft | 9 kts | 201° |
| 2026-05-04 01:58 | 30.57186 | 103.94696 | 1641 ft | 9 kts | 202° |
| 2026-05-04 01:58 | 30.57132 | 103.94671 | 1641 ft | 8 kts | 202° |
| 2026-05-04 01:59 | 30.57080 | 103.94646 | 1641 ft | 8 kts | 202° |
| 2026-05-04 01:59 | 30.57031 | 103.94623 | 1641 ft | 7 kts | 200° |
| 2026-05-04 01:59 | 30.56982 | 103.94606 | 1641 ft | 7 kts | 195° |
| 2026-05-04 01:59 | 30.56936 | 103.94591 | 1641 ft | 7 kts | 196° |
| 2026-05-04 02:00 | 30.56890 | 103.94576 | 1641 ft | 7 kts | 196° |
| 2026-05-04 02:00 | 30.56846 | 103.94556 | 1641 ft | 7 kts | 205° |
| 2026-05-04 02:00 | 30.56806 | 103.94536 | 1641 ft | 6 kts | 201° |
| 2026-05-04 02:00 | 30.56767 | 103.94519 | 1641 ft | 6 kts | 201° |
| 2026-05-04 02:01 | 30.56728 | 103.94501 | 1641 ft | 6 kts | 201° |
| 2026-05-04 02:01 | 30.56688 | 103.94483 | 1641 ft | 6 kts | 201° |
| 2026-05-04 02:01 | 30.56646 | 103.94464 | 1641 ft | 7 kts | 201° |
| 2026-05-04 02:01 | 30.56600 | 103.94455 | 1641 ft | 7 kts | 156° |
| 2026-05-04 02:02 | 30.56566 | 103.94499 | 1641 ft | 8 kts | 133° |
| 2026-05-04 02:02 | 30.56515 | 103.94506 | 1641 ft | 8 kts | 194° |
| 2026-05-04 02:02 | 30.56460 | 103.94480 | 1641 ft | 9 kts | 206° |
| 2026-05-04 02:02 | 30.56400 | 103.94449 | 1641 ft | 10 kts | 202° |
| 2026-05-04 02:03 | 30.56336 | 103.94420 | 1641 ft | 10 kts | 201° |
| 2026-05-04 02:03 | 30.56269 | 103.94389 | 1641 ft | 11 kts | 201° |
| 2026-05-04 02:03 | 30.56199 | 103.94357 | 1640 ft | 11 kts | 202° |
| 2026-05-04 02:03 | 30.56128 | 103.94323 | 1640 ft | 11 kts | 202° |
| 2026-05-04 02:04 | 30.56055 | 103.94289 | 1640 ft | 11 kts | 202° |
| 2026-05-04 02:04 | 30.55980 | 103.94254 | 1640 ft | 12 kts | 200° |
| 2026-05-04 02:04 | 30.55903 | 103.94222 | 1640 ft | 11 kts | 193° |
| 2026-05-04 02:04 | 30.55826 | 103.94209 | 1639 ft | 11 kts | 181° |
| 2026-05-04 02:05 | 30.55751 | 103.94220 | 1639 ft | 11 kts | 163° |
| 2026-05-04 02:05 | 30.55681 | 103.94253 | 1638 ft | 11 kts | 156° |
| 2026-05-04 02:05 | 30.55614 | 103.94287 | 1638 ft | 11 kts | 156° |
| 2026-05-04 02:05 | 30.55544 | 103.94321 | 1637 ft | 11 kts | 157° |
| 2026-05-04 02:06 | 30.55475 | 103.94355 | 1636 ft | 11 kts | 157° |
| 2026-05-04 02:06 | 30.55405 | 103.94389 | 1635 ft | 11 kts | 156° |
| 2026-05-04 02:06 | 30.55336 | 103.94424 | 1635 ft | 11 kts | 156° |
| 2026-05-04 02:06 | 30.55267 | 103.94460 | 1634 ft | 11 kts | 156° |
| 2026-05-04 02:07 | 30.55201 | 103.94500 | 1634 ft | 11 kts | 144° |
| 2026-05-04 02:07 | 30.55146 | 103.94554 | 1633 ft | 10 kts | 131° |
| 2026-05-04 02:07 | 30.55107 | 103.94621 | 1633 ft | 10 kts | 119° |
| 2026-05-04 02:07 | 30.55081 | 103.94693 | 1632 ft | 10 kts | 112° |
| 2026-05-04 02:08 | 30.55056 | 103.94763 | 1632 ft | 9 kts | 111° |
| 2026-05-04 02:08 | 30.55033 | 103.94829 | 1632 ft | 9 kts | 112° |
| 2026-05-04 02:08 | 30.55011 | 103.94892 | 1632 ft | 8 kts | 111° |
| 2026-05-04 02:08 | 30.54993 | 103.94944 | 1631 ft | 0 kts | 112° |
| 2026-05-04 02:09 | 30.54993 | 103.94945 | 1631 ft | 2 kts | 112° |
| 2026-05-04 02:09 | 30.54973 | 103.95003 | 1630 ft | 9 kts | 112° |
| 2026-05-04 02:10 | 30.54933 | 103.95046 | 1631 ft | 7 kts | 177° |
| 2026-05-04 02:10 | 30.54891 | 103.95034 | 1632 ft | 8 kts | 202° |
| 2026-05-04 02:10 | 30.54686 | 103.94939 | 1636 ft | 71 kts | 201° |
| 2026-05-04 02:10 | 30.53962 | 103.94620 | 1820 ft | 131 kts | 198° |
| 2026-05-04 02:11 | 30.53055 | 103.94321 | 2074 ft | 155 kts | 191° |
| 2026-05-04 02:11 | 30.52062 | 103.94454 | 2305 ft | 121 kts | 134° |
| 2026-05-04 02:11 | 30.51703 | 103.94931 | 1682 ft | 0 kts | 36° |
| 2026-05-04 02:12 | 30.57989 | 103.95459 | 1640 ft | 0 kts | 200° |
| 2026-05-04 02:20 | 30.58003 | 103.95465 | 1641 ft | 6 kts | 200° |
| 2026-05-04 02:21 | 30.58038 | 103.95482 | 1641 ft | 5 kts | 205° |
| 2026-05-04 02:21 | 30.58053 | 103.95492 | 1641 ft | 2 kts | 218° |
| 2026-05-04 02:21 | 30.58060 | 103.95502 | 1641 ft | 2 kts | 261° |
| 2026-05-04 02:21 | 30.58058 | 103.95515 | 1641 ft | 1 kts | 292° |
| 2026-05-04 02:23 | 30.58067 | 103.95489 | 1641 ft | 7 kts | 293° |
| 2026-05-04 02:23 | 30.58090 | 103.95430 | 1641 ft | 8 kts | 293° |
| 2026-05-04 02:23 | 30.58110 | 103.95374 | 1641 ft | 7 kts | 292° |
| 2026-05-04 02:23 | 30.58129 | 103.95322 | 1641 ft | 7 kts | 291° |
| 2026-05-04 02:24 | 30.58145 | 103.95273 | 1641 ft | 6 kts | 291° |
| 2026-05-04 02:24 | 30.58161 | 103.95228 | 1641 ft | 6 kts | 291° |
| 2026-05-04 02:24 | 30.58178 | 103.95188 | 1641 ft | 6 kts | 306° |
| 2026-05-04 02:24 | 30.58211 | 103.95174 | 1641 ft | 5 kts | 12° |
| 2026-05-04 02:25 | 30.58259 | 103.95194 | 1641 ft | 9 kts | 21° |
| 2026-05-04 02:25 | 30.58327 | 103.95226 | 1641 ft | 12 kts | 23° |
| 2026-05-04 02:25 | 30.58416 | 103.95268 | 1641 ft | 15 kts | 21° |
| 2026-05-04 02:25 | 30.58521 | 103.95316 | 1641 ft | 17 kts | 22° |
| 2026-05-04 02:26 | 30.58625 | 103.95364 | 1641 ft | 15 kts | 22° |
| 2026-05-04 02:26 | 30.58721 | 103.95409 | 1641 ft | 14 kts | 22° |
| 2026-05-04 02:26 | 30.58810 | 103.95451 | 1641 ft | 13 kts | 22° |
| 2026-05-04 02:26 | 30.58892 | 103.95489 | 1641 ft | 12 kts | 21° |
| 2026-05-04 02:27 | 30.58970 | 103.95525 | 1641 ft | 12 kts | 21° |
| 2026-05-04 02:27 | 30.59043 | 103.95544 | 1641 ft | 10 kts | 338° |
| 2026-05-04 02:27 | 30.59092 | 103.95497 | 1641 ft | 9 kts | 359° |
| 2026-05-04 02:27 | 30.59147 | 103.95515 | 1641 ft | 8 kts | 23° |
| 2026-05-04 02:28 | 30.59197 | 103.95541 | 1641 ft | 8 kts | 22° |
| 2026-05-04 02:28 | 30.59245 | 103.95563 | 1641 ft | 7 kts | 17° |
| 2026-05-04 02:28 | 30.59290 | 103.95550 | 1641 ft | 7 kts | 314° |
| 2026-05-04 02:28 | 30.59311 | 103.95502 | 1640 ft | 6 kts | 292° |
| 2026-05-04 02:29 | 30.59311 | 103.95501 | 1640 ft | 0 kts | 292° |
| 2026-05-04 02:29 | 30.59317 | 103.95485 | 1640 ft | 7 kts | 292° |
| 2026-05-04 02:29 | 30.59319 | 103.95397 | 1641 ft | 15 kts | 241° |
| 2026-05-04 02:30 | 30.59168 | 103.95312 | 1641 ft | 52 kts | 201° |
| 2026-05-04 02:30 | 30.58547 | 103.95037 | 1670 ft | 133 kts | 199° |
| 2026-05-04 02:30 | 30.57788 | 103.94843 | 2634 ft | 107 kts | 190° |
| 2026-05-04 02:30 | 30.56911 | 103.94284 | 2569 ft | 174 kts | 210° |
| 2026-05-04 02:31 | 30.55711 | 103.93681 | 2883 ft | 202 kts | 200° |
| 2026-05-04 02:31 | 30.54360 | 103.93062 | 3589 ft | 208 kts | 201° |
| 2026-05-04 02:31 | 30.53034 | 103.92452 | 4786 ft | 205 kts | 201° |
| 2026-05-04 02:31 | 30.51701 | 103.91835 | 5781 ft | 207 kts | 201° |
| 2026-05-04 02:32 | 30.50369 | 103.91219 | 6784 ft | 211 kts | 201° |
| 2026-05-04 02:32 | 30.49062 | 103.90437 | 7735 ft | 214 kts | 222° |
| 2026-05-04 02:32 | 30.48261 | 103.88988 | 8755 ft | 217 kts | 251° |
| 2026-05-04 02:32 | 30.48213 | 103.87254 | 9797 ft | 219 kts | 282° |
| 2026-05-04 02:33 | 30.48958 | 103.85716 | 10698 ft | 226 kts | 313° |
| 2026-05-04 02:33 | 30.50358 | 103.84860 | 11527 ft | 236 kts | 346° |
| 2026-05-04 02:33 | 30.52001 | 103.85052 | 12358 ft | 245 kts | 19° |
| 2026-05-04 02:33 | 30.53595 | 103.85809 | 13187 ft | 250 kts | 22° |
| 2026-05-04 02:34 | 30.55164 | 103.86633 | 14032 ft | 253 kts | 23° |
| 2026-05-04 02:34 | 30.56776 | 103.87460 | 14820 ft | 254 kts | 21° |
| 2026-05-04 02:34 | 30.58407 | 103.88267 | 15645 ft | 255 kts | 21° |
| 2026-05-04 02:34 | 30.60046 | 103.89080 | 16447 ft | 257 kts | 21° |
| 2026-05-04 02:35 | 30.61691 | 103.89904 | 17256 ft | 259 kts | 20° |
| 2026-05-04 02:35 | 30.63349 | 103.90729 | 18070 ft | 260 kts | 20° |
| 2026-05-04 02:35 | 30.65019 | 103.91565 | 18823 ft | 263 kts | 20° |
| 2026-05-04 02:35 | 30.66706 | 103.92410 | 19507 ft | 265 kts | 20° |
| 2026-05-04 02:36 | 30.68391 | 103.93250 | 20205 ft | 269 kts | 19° |
| 2026-05-04 02:36 | 30.70116 | 103.94114 | 20909 ft | 272 kts | 19° |
| 2026-05-04 02:36 | 30.71856 | 103.95022 | 21643 ft | 278 kts | 25° |
| 2026-05-04 02:36 | 30.73285 | 103.96581 | 22361 ft | 290 kts | 51° |
| 2026-05-04 02:37 | 30.74167 | 103.98735 | 23056 ft | 300 kts | 65° |
| 2026-05-04 02:37 | 30.74905 | 104.01022 | 23754 ft | 305 kts | 66° |
| 2026-05-04 02:37 | 30.75640 | 104.03352 | 24331 ft | 309 kts | 66° |
| 2026-05-04 02:37 | 30.76407 | 104.05707 | 24903 ft | 314 kts | 65° |
| 2026-05-04 02:38 | 30.77185 | 104.08063 | 25456 ft | 319 kts | 64° |
| 2026-05-04 02:38 | 30.77977 | 104.10488 | 26007 ft | 323 kts | 64° |
| 2026-05-04 02:38 | 30.78779 | 104.12952 | 26562 ft | 328 kts | 64° |
| 2026-05-04 02:38 | 30.79593 | 104.15453 | 27081 ft | 333 kts | 64° |
| 2026-05-04 02:39 | 30.80417 | 104.17990 | 27609 ft | 338 kts | 64° |
| 2026-05-04 02:39 | 30.81256 | 104.20564 | 28122 ft | 342 kts | 64° |
| 2026-05-04 02:39 | 30.82102 | 104.23168 | 28667 ft | 345 kts | 64° |
| 2026-05-04 02:39 | 30.82951 | 104.25788 | 29275 ft | 347 kts | 63° |
| 2026-05-04 02:40 | 30.83802 | 104.28415 | 29877 ft | 348 kts | 63° |
| 2026-05-04 02:40 | 30.84648 | 104.31019 | 30423 ft | 349 kts | 63° |
| 2026-05-04 02:40 | 30.85505 | 104.33667 | 30920 ft | 350 kts | 63° |
| 2026-05-04 02:40 | 30.86363 | 104.36320 | 31408 ft | 351 kts | 63° |
| 2026-05-04 02:41 | 30.87221 | 104.38978 | 31885 ft | 352 kts | 63° |
| 2026-05-04 02:41 | 30.87944 | 104.41716 | 32350 ft | 355 kts | 67° |
| 2026-05-04 02:41 | 30.88653 | 104.44465 | 32810 ft | 355 kts | 66° |
| 2026-05-04 02:41 | 30.89379 | 104.47218 | 33269 ft | 356 kts | 66° |
| 2026-05-04 02:42 | 30.90097 | 104.49973 | 33717 ft | 356 kts | 66° |
| 2026-05-04 02:42 | 30.90812 | 104.52736 | 34163 ft | 357 kts | 66° |
| 2026-05-04 02:42 | 30.91521 | 104.55470 | 34554 ft | 358 kts | 66° |
| 2026-05-04 02:42 | 30.92240 | 104.58248 | 34932 ft | 359 kts | 66° |
| 2026-05-04 02:43 | 30.92970 | 104.61056 | 35084 ft | 367 kts | 66° |
| 2026-05-04 02:43 | 30.93723 | 104.63950 | 35123 ft | 380 kts | 66° |
| 2026-05-04 02:43 | 30.94499 | 104.66953 | 35133 ft | 394 kts | 67° |
| 2026-05-04 02:43 | 30.95298 | 104.70059 | 35139 ft | 407 kts | 67° |
| 2026-05-04 02:44 | 30.96123 | 104.73262 | 35138 ft | 419 kts | 67° |
| 2026-05-04 02:44 | 30.96970 | 104.76556 | 35139 ft | 430 kts | 68° |
| 2026-05-04 02:44 | 30.98727 | 104.83391 | 35140 ft | 450 kts | 68° |
| 2026-05-04 02:45 | 31.00281 | 104.90551 | 35140 ft | 471 kts | 78° |
| 2026-05-04 02:45 | 31.00351 | 104.98248 | 35146 ft | 480 kts | 95° |
| 2026-05-04 02:46 | 30.98676 | 105.05787 | 35148 ft | 483 kts | 113° |
| 2026-05-04 02:46 | 30.95876 | 105.12903 | 35149 ft | 484 kts | 116° |
| 2026-05-04 02:47 | 30.93070 | 105.19990 | 35149 ft | 486 kts | 116° |
| 2026-05-04 02:47 | 30.90221 | 105.27139 | 35151 ft | 487 kts | 116° |
| 2026-05-04 02:48 | 30.87456 | 105.34345 | 35147 ft | 489 kts | 110° |
| 2026-05-04 02:48 | 30.85963 | 105.42048 | 35145 ft | 489 kts | 94° |
| 2026-05-04 02:49 | 30.86124 | 105.49851 | 35146 ft | 484 kts | 78° |
| 2026-05-04 02:49 | 30.87618 | 105.57442 | 35147 ft | 482 kts | 72° |
| 2026-05-04 02:50 | 30.89217 | 105.65017 | 35154 ft | 482 kts | 72° |
| 2026-05-04 02:50 | 30.90830 | 105.72600 | 35150 ft | 483 kts | 72° |
| 2026-05-04 02:51 | 30.92420 | 105.80146 | 35149 ft | 483 kts | 72° |
| 2026-05-04 02:51 | 30.94021 | 105.87743 | 35149 ft | 483 kts | 72° |
| 2026-05-04 02:52 | 30.95618 | 105.95343 | 35150 ft | 484 kts | 72° |
| 2026-05-04 02:52 | 30.96905 | 106.03047 | 35148 ft | 488 kts | 82° |